TimeEST,TemperatureF,Dew PointF,Humidity,Sea Level PressureIn,VisibilityMPH,Wind Direction,Wind SpeedMPH,Gust SpeedMPH,PrecipitationIn,Events,Conditions,WindDirDegrees,DateUTC
12:53 AM,48.0,35.1,61,29.62,10.0,NW,17.3,27.6,N/A,,Overcast,320,2012-12-11 05:53:00
1:53 AM,46.9,35.1,63,29.64,10.0,NW,6.9,16.1,N/A,,Overcast,320,2012-12-11 06:53:00
2:53 AM,46.9,35.1,63,29.67,10.0,Variable,3.5,-,N/A,,Overcast,0,2012-12-11 07:53:00
3:53 AM,44.1,35.1,71,29.70,10.0,WNW,10.4,-,0.00,Rain,Light Rain,290,2012-12-11 08:53:00
4:53 AM,43.0,34.0,71,29.72,10.0,NW,3.5,-,0.01,,Overcast,320,2012-12-11 09:53:00
5:53 AM,42.1,34.0,73,29.75,10.0,NW,5.8,-,N/A,,Overcast,310,2012-12-11 10:53:00
6:53 AM,42.1,33.1,70,29.78,10.0,NW,5.8,-,N/A,,Overcast,320,2012-12-11 11:53:00
7:21 AM,42.8,32.0,66,29.79,10.0,NW,12.7,17.3,N/A,,Overcast,320,2012-12-11 12:21:00
7:51 AM,42.8,28.4,57,29.81,10.0,NW,18.4,25.3,N/A,,Overcast,310,2012-12-11 12:51:00
7:53 AM,42.1,28.9,60,29.83,10.0,NW,17.3,27.6,N/A,,Overcast,320,2012-12-11 12:53:00
8:53 AM,41.0,27.0,57,29.88,10.0,NW,12.7,19.6,N/A,,Mostly Cloudy,320,2012-12-11 13:53:00
9:53 AM,43.0,27.0,53,29.89,10.0,NW,16.1,28.8,N/A,,Partly Cloudy,310,2012-12-11 14:53:00
10:53 AM,45.0,26.1,48,29.90,10.0,NW,19.6,25.3,N/A,,Scattered Clouds,320,2012-12-11 15:53:00
11:53 AM,45.0,24.1,44,29.90,10.0,NNW,15.0,21.9,N/A,,Mostly Cloudy,330,2012-12-11 16:53:00
12:53 PM,45.0,24.1,44,29.92,10.0,West,11.5,18.4,N/A,,Partly Cloudy,280,2012-12-11 17:53:00
1:53 PM,44.1,23.0,43,29.95,10.0,NNW,13.8,-,N/A,,Partly Cloudy,330,2012-12-11 18:53:00
2:53 PM,41.0,21.9,47,29.99,10.0,WNW,9.2,21.9,N/A,,Scattered Clouds,290,2012-12-11 19:53:00
3:53 PM,39.9,21.0,47,30.01,10.0,NW,11.5,24.2,N/A,,Mostly Cloudy,320,2012-12-11 20:53:00
4:53 PM,37.9,21.0,51,30.03,10.0,NNW,6.9,-,N/A,,Partly Cloudy,330,2012-12-11 21:53:00
5:53 PM,37.9,21.0,51,30.07,10.0,WNW,12.7,-,N/A,,Partly Cloudy,300,2012-12-11 22:53:00
6:53 PM,36.0,19.9,52,30.10,10.0,NW,8.1,-,N/A,,Clear,320,2012-12-11 23:53:00
7:53 PM,35.1,19.0,52,30.13,10.0,WNW,4.6,-,N/A,,Clear,290,2012-12-12 00:53:00
8:53 PM,34.0,19.9,56,30.15,10.0,West,5.8,-,N/A,,Clear,280,2012-12-12 01:53:00
9:53 PM,33.1,19.0,56,30.16,10.0,WNW,4.6,-,N/A,,Clear,290,2012-12-12 02:53:00
10:53 PM,32.0,19.9,61,30.18,10.0,WNW,5.8,-,N/A,,Clear,290,2012-12-12 03:53:00
11:53 PM,32.0,19.9,61,30.19,10.0,WNW,6.9,-,N/A,,Clear,300,2012-12-12 04:53:00